createdAt,value
2019-04-01T00:00:44.132Z,1008.49
2019-04-01T00:01:44.115Z,1008.49
2019-04-01T00:02:44.108Z,1008.52
2019-04-01T00:03:44.101Z,1008.49
2019-04-01T00:04:44.088Z,1008.52
2019-04-01T00:05:44.079Z,1008.49
2019-04-01T00:06:44.075Z,1008.49
2019-04-01T00:07:44.063Z,1008.52
2019-04-01T00:08:44.050Z,1008.52
2019-04-01T00:09:44.041Z,1008.53
2019-04-01T00:10:44.029Z,1008.50
2019-04-01T00:11:44.029Z,1008.51
2019-04-01T00:12:44.014Z,1008.59
2019-04-01T00:13:44.007Z,1008.57
2019-04-01T00:14:43.997Z,1008.57
2019-04-01T00:15:43.989Z,1008.61
2019-04-01T00:16:43.976Z,1008.60
2019-04-01T00:17:43.967Z,1008.60
2019-04-01T00:18:43.955Z,1008.58
2019-04-01T00:19:43.949Z,1008.60
2019-04-01T00:20:43.942Z,1008.63
2019-04-01T00:21:44.633Z,1008.66
2019-04-01T00:22:43.944Z,1008.66
2019-04-01T00:23:43.910Z,1008.65
2019-04-01T00:24:43.905Z,1008.65
2019-04-01T00:25:43.893Z,1008.67
2019-04-01T00:26:43.879Z,1008.64
2019-04-01T00:27:43.870Z,1008.66
2019-04-01T00:28:43.863Z,1008.65
2019-04-01T00:29:43.851Z,1008.64
2019-04-01T00:30:43.843Z,1008.65
2019-04-01T00:31:43.836Z,1008.67
2019-04-01T00:32:43.827Z,1008.67
2019-04-01T00:33:43.813Z,1008.68
2019-04-01T00:34:43.807Z,1008.67
2019-04-01T00:35:43.795Z,1008.67
2019-04-01T00:36:43.790Z,1008.66
2019-04-01T00:37:43.777Z,1008.67
2019-04-01T00:38:43.763Z,1008.67
2019-04-01T00:39:43.758Z,1008.68
2019-04-01T00:40:43.746Z,1008.68
2019-04-01T00:41:43.735Z,1008.68
2019-04-01T00:42:43.729Z,1008.65
2019-04-01T00:43:43.714Z,1008.64
2019-04-01T00:44:43.707Z,1008.67
2019-04-01T00:45:43.702Z,1008.63
2019-04-01T00:46:43.690Z,1008.63
2019-04-01T00:47:43.683Z,1008.64
2019-04-01T00:48:43.667Z,1008.65
2019-04-01T00:49:43.657Z,1008.62
2019-04-01T00:50:43.648Z,1008.65
2019-04-01T00:51:43.636Z,1008.65
2019-04-01T00:52:43.624Z,1008.62
2019-04-01T00:53:43.613Z,1008.65
2019-04-01T00:54:43.604Z,1008.63
2019-04-01T00:55:43.605Z,1008.66
2019-04-01T00:56:43.602Z,1008.70
2019-04-01T00:57:43.574Z,1008.66
2019-04-01T00:58:43.562Z,1008.68
2019-04-01T00:59:43.554Z,1008.67
2019-04-01T01:00:43.545Z,1008.67
2019-04-01T01:01:43.532Z,1008.71
2019-04-01T01:02:43.534Z,1008.71
2019-04-01T01:03:43.517Z,1008.75
2019-04-01T01:04:43.502Z,1008.75
2019-04-01T01:05:43.500Z,1008.70
2019-04-01T01:06:43.483Z,1008.71
2019-04-01T01:07:43.472Z,1008.73
2019-04-01T01:08:43.484Z,1008.71
2019-04-01T01:09:43.454Z,1008.71
2019-04-01T01:10:43.441Z,1008.72
2019-04-01T01:11:43.429Z,1008.69
2019-04-01T01:12:43.422Z,1008.67
2019-04-01T01:13:43.411Z,1008.67
2019-04-01T01:14:43.412Z,1008.67
2019-04-01T01:15:43.390Z,1008.66
2019-04-01T01:16:43.380Z,1008.71
2019-04-01T01:17:43.373Z,1008.69
2019-04-01T01:18:43.358Z,1008.71
2019-04-01T01:19:43.350Z,1008.72
2019-04-01T01:20:43.358Z,1008.69
2019-04-01T01:21:43.327Z,1008.69
2019-04-01T01:22:43.316Z,1008.69
2019-04-01T01:23:43.306Z,1008.73
2019-04-01T01:24:43.295Z,1008.69
2019-04-01T01:25:43.284Z,1008.68
2019-04-01T01:26:43.274Z,1008.63
2019-04-01T01:27:43.267Z,1008.65
2019-04-01T01:28:43.345Z,1008.68
2019-04-01T01:29:43.243Z,1008.68
2019-04-01T01:30:43.231Z,1008.65
2019-04-01T01:31:43.222Z,1008.65
2019-04-01T01:32:43.217Z,1008.67
2019-04-01T01:33:43.204Z,1008.64
2019-04-01T01:34:43.192Z,1008.63
2019-04-01T01:35:43.181Z,1008.63
2019-04-01T01:36:43.176Z,1008.56
2019-04-01T01:37:43.161Z,1008.61
2019-04-01T01:38:43.149Z,1008.58
2019-04-01T01:39:43.139Z,1008.60
2019-04-01T01:40:43.195Z,1008.55
2019-04-01T01:41:43.133Z,1008.64
2019-04-01T01:42:43.110Z,1008.59
2019-04-01T01:43:43.103Z,1008.57
2019-04-01T01:44:43.088Z,1008.58
2019-04-01T01:45:43.077Z,1008.56
2019-04-01T01:46:43.067Z,1008.52
2019-04-01T01:47:43.055Z,1008.56
2019-04-01T01:48:43.063Z,1008.52
2019-04-01T01:49:43.045Z,1008.53
2019-04-01T01:50:43.025Z,1008.49
2019-04-01T01:51:43.020Z,1008.47
2019-04-01T01:52:43.004Z,1008.48
2019-04-01T01:53:42.992Z,1008.50
2019-04-01T01:54:42.983Z,1008.51
2019-04-01T01:55:42.980Z,1008.52
2019-04-01T01:56:42.962Z,1008.58
2019-04-01T01:57:42.953Z,1008.56
2019-04-01T01:58:42.945Z,1008.50
2019-04-01T01:59:42.934Z,1008.51
2019-04-01T02:00:42.919Z,1008.51
2019-04-01T02:01:42.911Z,1008.51
2019-04-01T02:02:42.900Z,1008.51
2019-04-01T02:03:42.888Z,1008.53
2019-04-01T02:04:42.878Z,1008.53
2019-04-01T02:05:42.865Z,1008.52
2019-04-01T02:06:42.859Z,1008.54
2019-04-01T02:07:42.850Z,1008.51
2019-04-01T02:08:42.837Z,1008.50
2019-04-01T02:09:42.826Z,1008.59
2019-04-01T02:10:42.817Z,1008.47
2019-04-01T02:11:42.802Z,1008.47
2019-04-01T02:12:42.796Z,1008.53
2019-04-01T02:13:42.783Z,1008.49
2019-04-01T02:14:42.773Z,1008.48
2019-04-01T02:15:42.761Z,1008.50
2019-04-01T02:16:42.752Z,1008.52
2019-04-01T02:17:42.738Z,1008.49
2019-04-01T02:18:42.727Z,1008.51
2019-04-01T02:19:42.718Z,1008.48
2019-04-01T02:20:42.709Z,1008.48
2019-04-01T02:21:42.698Z,1008.46
2019-04-01T02:22:42.703Z,1008.48
2019-04-01T02:23:42.675Z,1008.48
2019-04-01T02:24:42.673Z,1008.40
2019-04-01T02:25:42.662Z,1008.46
2019-04-01T02:26:42.648Z,1008.45
2019-04-01T02:27:42.634Z,1008.44
2019-04-01T02:28:42.622Z,1008.46
2019-04-01T02:29:42.610Z,1008.45
2019-04-01T02:30:42.617Z,1008.44
2019-04-01T02:31:42.624Z,1008.48
2019-04-01T02:32:42.585Z,1008.43
2019-04-01T02:33:42.573Z,1008.43
2019-04-01T02:34:42.562Z,1008.45
2019-04-01T02:35:42.546Z,1008.45
2019-04-01T02:36:42.544Z,1008.48
2019-04-01T02:37:42.527Z,1008.45
2019-04-01T02:38:42.513Z,1008.42
2019-04-01T02:39:42.503Z,1008.43
2019-04-01T02:40:42.501Z,1008.43
2019-04-01T02:41:42.484Z,1008.43
2019-04-01T02:42:42.476Z,1008.41
2019-04-01T02:43:42.465Z,1008.44
2019-04-01T02:44:42.450Z,1008.40
2019-04-01T02:45:42.436Z,1008.36
2019-04-01T02:46:42.431Z,1008.36
2019-04-01T02:47:42.425Z,1008.40
2019-04-01T02:48:42.405Z,1008.37
2019-04-01T02:49:42.398Z,1008.37
2019-04-01T02:50:42.385Z,1008.37
2019-04-01T02:51:42.379Z,1008.40
2019-04-01T02:52:42.364Z,1008.33
2019-04-01T02:53:42.354Z,1008.35
2019-04-01T02:54:42.348Z,1008.37
2019-04-01T02:55:42.331Z,1008.38
2019-04-01T02:56:42.321Z,1008.38
2019-04-01T02:57:42.307Z,1008.34
2019-04-01T02:58:42.295Z,1008.35
2019-04-01T02:59:42.285Z,1008.38
2019-04-01T03:00:42.273Z,1008.39
2019-04-01T03:01:42.270Z,1008.39
2019-04-01T03:02:42.256Z,1008.36
2019-04-01T03:03:42.252Z,1008.40
2019-04-01T03:04:42.231Z,1008.42
2019-04-01T03:05:42.218Z,1008.42
2019-04-01T03:06:42.208Z,1008.43
2019-04-01T03:07:42.198Z,1008.43
2019-04-01T03:08:42.195Z,1008.42
2019-04-01T03:09:42.181Z,1008.39
2019-04-01T03:10:42.167Z,1008.39
2019-04-01T03:11:42.151Z,1008.38
2019-04-01T03:12:42.142Z,1008.41
2019-04-01T03:13:42.137Z,1008.46
2019-04-01T03:14:42.124Z,1008.45
2019-04-01T03:15:42.111Z,1008.44
2019-04-01T03:16:42.100Z,1008.44
2019-04-01T03:17:42.088Z,1008.44
2019-04-01T03:18:42.082Z,1008.45
2019-04-01T03:19:42.066Z,1008.44
2019-04-01T03:20:42.053Z,1008.41
2019-04-01T03:21:42.045Z,1008.40
2019-04-01T03:22:42.030Z,1008.42
2019-04-01T03:23:42.019Z,1008.40
2019-04-01T03:24:42.012Z,1008.41
2019-04-01T03:25:41.998Z,1008.39
2019-04-01T03:26:41.996Z,1008.41
2019-04-01T03:27:41.980Z,1008.43
2019-04-01T03:28:41.967Z,1008.44
2019-04-01T03:29:41.952Z,1008.50
2019-04-01T03:30:41.946Z,1008.46
2019-04-01T03:31:41.941Z,1008.45
2019-04-01T03:32:45.248Z,1008.44
2019-04-01T03:33:41.923Z,1008.43
2019-04-01T03:34:41.903Z,1008.45
2019-04-01T03:35:41.887Z,1008.50
2019-04-01T03:36:41.881Z,1008.49
2019-04-01T03:37:41.888Z,1008.52
2019-04-01T03:38:41.860Z,1008.48
2019-04-01T03:39:41.846Z,1008.55
2019-04-01T03:40:41.836Z,1008.48
2019-04-01T03:41:41.825Z,1008.48
2019-04-01T03:42:41.813Z,1008.49
2019-04-01T03:43:41.811Z,1008.50
2019-04-01T03:44:41.793Z,1008.49
2019-04-01T03:45:41.782Z,1008.49
2019-04-01T03:46:41.769Z,1008.50
2019-04-01T03:47:41.773Z,1008.47
2019-04-01T03:48:41.751Z,1008.48
2019-04-01T03:49:41.738Z,1008.46
2019-04-01T03:50:41.731Z,1008.45
2019-04-01T03:51:41.719Z,1008.46
2019-04-01T03:52:41.710Z,1008.44
2019-04-01T03:53:41.697Z,1008.48
2019-04-01T03:54:41.685Z,1008.46
2019-04-01T03:55:41.676Z,1008.48
2019-04-01T03:56:41.664Z,1008.48
2019-04-01T03:57:41.654Z,1008.48
2019-04-01T03:58:41.658Z,1008.49
2019-04-01T03:59:41.748Z,1008.49
2019-04-01T04:00:41.623Z,1008.55
2019-04-01T04:01:41.612Z,1008.52
2019-04-01T04:02:41.601Z,1008.47
2019-04-01T04:03:41.595Z,1008.51
2019-04-01T04:04:41.580Z,1008.52
2019-04-01T04:05:41.566Z,1008.53
2019-04-01T04:06:41.554Z,1008.52
2019-04-01T04:07:41.551Z,1008.50
2019-04-01T04:08:41.539Z,1008.49
2019-04-01T04:09:41.527Z,1008.47
2019-04-01T04:10:41.516Z,1008.53
2019-04-01T04:11:41.496Z,1008.50
2019-04-01T04:12:41.491Z,1008.49
2019-04-01T04:13:41.483Z,1008.51
2019-04-01T04:14:41.469Z,1008.50
2019-04-01T04:15:41.458Z,1008.55
2019-04-01T04:16:41.453Z,1008.54
2019-04-01T04:17:41.435Z,1008.53
2019-04-01T04:18:41.425Z,1008.52
2019-04-01T04:19:41.425Z,1008.55
2019-04-01T04:20:41.404Z,1008.55
2019-04-01T04:21:41.389Z,1008.53
2019-04-01T04:22:41.381Z,1008.49
2019-04-01T04:23:41.368Z,1008.53
2019-04-01T04:24:41.374Z,1008.54
2019-04-01T04:25:41.353Z,1008.52
2019-04-01T04:26:41.334Z,1008.55
2019-04-01T04:27:41.330Z,1008.57
2019-04-01T04:28:41.319Z,1008.54
2019-04-01T04:29:41.308Z,1008.58
2019-04-01T04:30:41.296Z,1008.56
2019-04-01T04:31:41.361Z,1008.54
2019-04-01T04:32:41.274Z,1008.54
2019-04-01T04:33:41.258Z,1008.59
2019-04-01T04:34:41.249Z,1008.59
2019-04-01T04:35:41.239Z,1008.60
2019-04-01T04:36:41.229Z,1008.60
2019-04-01T04:37:41.215Z,1008.61
2019-04-01T04:38:41.209Z,1008.58
2019-04-01T04:39:41.197Z,1008.60
2019-04-01T04:40:41.410Z,1008.62
2019-04-01T04:41:41.217Z,1008.64
2019-04-01T04:42:41.160Z,1008.62
2019-04-01T04:43:41.150Z,1008.64
2019-04-01T04:44:41.138Z,1008.62
2019-04-01T04:45:41.125Z,1008.63
2019-04-01T04:46:41.115Z,1008.62
2019-04-01T04:47:41.104Z,1008.61
2019-04-01T04:48:41.094Z,1008.62
2019-04-01T04:49:41.081Z,1008.61
2019-04-01T04:50:41.076Z,1008.62
2019-04-01T04:51:41.060Z,1008.64
2019-04-01T04:52:41.049Z,1008.64
2019-04-01T04:53:41.034Z,1008.64
2019-04-01T04:54:41.028Z,1008.63
2019-04-01T04:55:41.017Z,1008.60
2019-04-01T04:56:41.005Z,1008.64
2019-04-01T04:57:40.994Z,1008.64
2019-04-01T04:58:40.983Z,1008.64
2019-04-01T04:59:40.969Z,1008.63
2019-04-01T05:00:40.960Z,1008.60
2019-04-01T05:01:40.950Z,1008.57
2019-04-01T05:02:40.934Z,1008.62
2019-04-01T05:03:40.924Z,1008.61
2019-04-01T05:04:40.916Z,1008.58
2019-04-01T05:05:40.907Z,1008.60
2019-04-01T05:06:40.897Z,1008.59
2019-04-01T05:07:40.883Z,1008.65
2019-04-01T05:08:40.871Z,1008.64
2019-04-01T05:09:40.858Z,1008.65
2019-04-01T05:10:40.853Z,1008.65
2019-04-01T05:11:40.838Z,1008.68
2019-04-01T05:12:40.823Z,1008.71
2019-04-01T05:13:40.837Z,1008.70
2019-04-01T05:14:40.805Z,1008.68
2019-04-01T05:15:40.792Z,1008.68
2019-04-01T05:16:40.784Z,1008.69
2019-04-01T05:17:40.768Z,1008.70
2019-04-01T05:18:40.764Z,1008.66
2019-04-01T05:19:40.848Z,1008.67
2019-04-01T05:20:40.736Z,1008.66
2019-04-01T05:21:40.720Z,1008.62
2019-04-01T05:22:40.713Z,1008.65
2019-04-01T05:23:40.701Z,1008.64
2019-04-01T05:24:40.693Z,1008.64
2019-04-01T05:25:40.680Z,1008.66
2019-04-01T05:26:40.669Z,1008.70
2019-04-01T05:27:40.667Z,1008.72
2019-04-01T05:28:40.650Z,1008.76
2019-04-01T05:29:40.634Z,1008.76
2019-04-01T05:30:40.625Z,1008.74
2019-04-01T05:31:40.614Z,1008.75
2019-04-01T05:32:40.604Z,1008.76
2019-04-01T05:33:54.606Z,1008.76
2019-04-01T05:34:40.581Z,1008.74
2019-04-01T05:35:40.571Z,1008.73
2019-04-01T05:36:40.560Z,1008.79
2019-04-01T05:37:40.549Z,1008.77
2019-04-01T05:38:40.537Z,1008.79
2019-04-01T05:39:40.528Z,1008.77
2019-04-01T05:40:40.515Z,1008.78
2019-04-01T05:41:40.502Z,1008.78
2019-04-01T05:42:40.495Z,1008.79
2019-04-01T05:43:40.482Z,1008.81
2019-04-01T05:44:40.477Z,1008.80
2019-04-01T05:45:40.459Z,1008.86
2019-04-01T05:46:40.454Z,1008.84
2019-04-01T05:47:40.434Z,1008.78
2019-04-01T05:48:40.430Z,1008.80
2019-04-01T05:49:40.415Z,1008.75
2019-04-01T05:50:40.407Z,1008.74
2019-04-01T05:51:40.395Z,1008.71
2019-04-01T05:52:40.384Z,1008.77
2019-04-01T05:53:40.371Z,1008.77
2019-04-01T05:54:40.364Z,1008.80
2019-04-01T05:55:40.352Z,1008.76
2019-04-01T05:56:40.345Z,1008.73
2019-04-01T05:57:40.334Z,1008.77
2019-04-01T05:58:40.343Z,1008.75
2019-04-01T05:59:40.307Z,1008.76
2019-04-01T06:00:40.297Z,1008.74
2019-04-01T06:01:40.289Z,1008.76
2019-04-01T06:02:40.279Z,1008.76
2019-04-01T06:03:40.265Z,1008.73
2019-04-01T06:04:40.259Z,1008.77
2019-04-01T06:05:40.255Z,1008.76
2019-04-01T06:06:40.233Z,1008.72
2019-04-01T06:07:40.222Z,1008.71
2019-04-01T06:08:40.211Z,1008.79
2019-04-01T06:09:40.223Z,1008.81
2019-04-01T06:10:40.194Z,1008.84
2019-04-01T06:11:40.177Z,1008.86
2019-04-01T06:12:40.168Z,1008.80
2019-04-01T06:13:40.164Z,1008.83
2019-04-01T06:14:40.148Z,1008.85
2019-04-01T06:15:40.135Z,1008.83
2019-04-01T06:16:40.129Z,1008.84
2019-04-01T06:17:40.111Z,1008.82
2019-04-01T06:18:40.105Z,1008.81
2019-04-01T06:19:40.090Z,1008.86
2019-04-01T06:20:40.080Z,1008.86
2019-04-01T06:21:40.073Z,1008.89
2019-04-01T06:22:40.054Z,1008.89
2019-04-01T06:23:40.046Z,1008.88
2019-04-01T06:24:40.036Z,1008.88
2019-04-01T06:25:40.025Z,1008.87
2019-04-01T06:26:40.013Z,1008.85
2019-04-01T06:27:40.004Z,1008.88
2019-04-01T06:28:40.001Z,1008.88
2019-04-01T06:29:39.977Z,1008.88
2019-04-01T06:30:39.970Z,1008.81
2019-04-01T06:31:39.960Z,1008.83
2019-04-01T06:32:39.951Z,1008.82
2019-04-01T06:33:39.936Z,1008.82
2019-04-01T06:34:52.231Z,1008.83
2019-04-01T06:35:39.914Z,1008.83
2019-04-01T06:36:39.897Z,1008.82
2019-04-01T06:37:39.910Z,1008.82
2019-04-01T06:38:39.876Z,1008.85
2019-04-01T06:39:39.864Z,1008.83
2019-04-01T06:40:39.857Z,1008.81
2019-04-01T06:41:39.839Z,1008.81
2019-04-01T06:42:39.834Z,1008.90
2019-04-01T06:43:39.823Z,1008.84
2019-04-01T06:44:39.810Z,1008.89
2019-04-01T06:45:39.797Z,1008.86
2019-04-01T06:46:39.788Z,1008.79
2019-04-01T06:47:39.784Z,1008.85
2019-04-01T06:48:39.769Z,1008.82
2019-04-01T06:49:39.753Z,1008.86
2019-04-01T06:50:39.744Z,1008.88
2019-04-01T06:51:39.732Z,1008.87
2019-04-01T06:52:39.721Z,1008.84
2019-04-01T06:53:39.712Z,1008.88
2019-04-01T06:54:39.699Z,1008.86
2019-04-01T06:55:39.689Z,1008.89
2019-04-01T06:56:39.675Z,1008.90
2019-04-01T06:57:39.664Z,1008.88
2019-04-01T06:58:39.654Z,1008.88
2019-04-01T06:59:39.647Z,1008.90
2019-04-01T07:00:39.631Z,1008.88
2019-04-01T07:01:39.622Z,1008.89
2019-04-01T07:02:39.619Z,1008.91
2019-04-01T07:03:39.600Z,1008.91
2019-04-01T07:04:39.590Z,1008.93
2019-04-01T07:05:39.577Z,1008.88
2019-04-01T07:06:39.658Z,1008.85
2019-04-01T07:07:39.555Z,1008.87
2019-04-01T07:08:39.546Z,1008.88
2019-04-01T07:09:39.533Z,1008.85
2019-04-01T07:10:39.527Z,1008.84
2019-04-01T07:11:39.652Z,1008.87
2019-04-01T07:12:39.504Z,1008.83
2019-04-01T07:13:40.190Z,1008.90
2019-04-01T07:14:39.480Z,1008.86
2019-04-01T07:15:39.469Z,1008.84
2019-04-01T07:16:40.182Z,1008.82
2019-04-01T07:17:39.448Z,1008.84
2019-04-01T07:18:39.436Z,1008.82
2019-04-01T07:19:39.424Z,1008.79
2019-04-01T07:20:39.415Z,1008.81
2019-04-01T07:21:39.410Z,1008.82
2019-04-01T07:22:39.396Z,1008.80
2019-04-01T07:23:39.382Z,1008.78
2019-04-01T07:24:39.371Z,1008.79
2019-04-01T07:25:39.359Z,1008.80
2019-04-01T07:26:39.348Z,1008.83
2019-04-01T07:27:39.341Z,1008.75
2019-04-01T07:28:39.363Z,1008.75
2019-04-01T07:29:39.320Z,1008.76
2019-04-01T07:30:41.777Z,1008.78
2019-04-01T07:31:39.300Z,1008.75
2019-04-01T07:32:39.286Z,1008.72
2019-04-01T07:33:39.280Z,1008.75
2019-04-01T07:34:39.263Z,1008.72
2019-04-01T07:35:39.251Z,1008.74
2019-04-01T07:36:39.247Z,1008.74
2019-04-01T07:37:39.244Z,1008.68
2019-04-01T07:38:39.223Z,1008.74
2019-04-01T07:39:39.217Z,1008.70
2019-04-01T07:40:39.204Z,1008.70
2019-04-01T07:41:39.343Z,1008.71
2019-04-01T07:42:39.180Z,1008.75
2019-04-01T07:43:39.171Z,1008.76
2019-04-01T07:44:39.160Z,1008.75
2019-04-01T07:45:39.150Z,1008.71
2019-04-01T07:46:39.140Z,1008.74
2019-04-01T07:47:39.127Z,1008.70
2019-04-01T07:48:39.119Z,1008.79
2019-04-01T07:49:39.211Z,1008.72
2019-04-01T07:50:39.104Z,1008.69
2019-04-01T07:51:39.089Z,1008.65
2019-04-01T07:52:39.084Z,1008.67
2019-04-01T07:53:39.075Z,1008.68
2019-04-01T07:54:39.055Z,1008.67
2019-04-01T07:55:39.076Z,1008.69
2019-04-01T07:56:39.038Z,1008.70
2019-04-01T07:57:39.035Z,1008.70
2019-04-01T07:58:39.017Z,1008.65
2019-04-01T07:59:39.034Z,1008.69
2019-04-01T08:00:38.996Z,1008.70
2019-04-01T08:01:38.985Z,1008.70
2019-04-01T08:02:38.975Z,1008.69
2019-04-01T08:03:41.819Z,1008.65
2019-04-01T08:04:38.952Z,1008.66
2019-04-01T08:05:38.946Z,1008.63
2019-04-01T08:06:38.938Z,1008.67
2019-04-01T08:07:38.925Z,1008.66
2019-04-01T08:08:38.915Z,1008.63
2019-04-01T08:09:38.908Z,1008.63
2019-04-01T08:10:38.895Z,1008.63
2019-04-01T08:11:38.885Z,1008.62
2019-04-01T08:12:38.874Z,1008.62
2019-04-01T08:13:38.866Z,1008.61
2019-04-01T08:14:38.863Z,1008.56
2019-04-01T08:15:38.860Z,1008.56
2019-04-01T08:16:38.850Z,1008.59
2019-04-01T08:17:38.833Z,1008.63
2019-04-01T08:18:38.818Z,1008.59
2019-04-01T08:19:38.809Z,1008.60
2019-04-01T08:20:38.799Z,1008.55
2019-04-01T08:21:38.790Z,1008.53
2019-04-01T08:22:38.831Z,1008.54
2019-04-01T08:23:38.773Z,1008.56
2019-04-01T08:24:38.793Z,1008.51
2019-04-01T08:25:38.753Z,1008.52
2019-04-01T08:26:38.743Z,1008.49
2019-04-01T08:27:38.737Z,1008.53
2019-04-01T08:28:38.725Z,1008.50
2019-04-01T08:29:38.717Z,1008.52
2019-04-01T08:30:38.711Z,1008.49
2019-04-01T08:31:38.701Z,1008.48
2019-04-01T08:32:38.691Z,1008.53
2019-04-01T08:33:38.675Z,1008.50
2019-04-01T08:34:38.678Z,1008.44
2019-04-01T08:35:38.658Z,1008.43
2019-04-01T08:36:38.649Z,1008.42
2019-04-01T08:37:40.536Z,1008.45
2019-04-01T08:38:38.629Z,1008.41
2019-04-01T08:39:38.633Z,1008.40
2019-04-01T08:40:38.609Z,1008.31
2019-04-01T08:41:38.603Z,1008.27
2019-04-01T08:42:38.594Z,1008.32
2019-04-01T08:43:38.584Z,1008.28
2019-04-01T08:44:38.577Z,1008.33
2019-04-01T08:45:38.567Z,1008.26
2019-04-01T08:46:38.558Z,1008.35
2019-04-01T08:47:38.547Z,1008.25
2019-04-01T08:48:38.549Z,1008.27
2019-04-01T08:49:38.531Z,1008.31
2019-04-01T08:50:38.534Z,1008.30
2019-04-01T08:51:38.511Z,1008.31
2019-04-01T08:52:38.503Z,1008.29
2019-04-01T08:53:38.494Z,1008.33
2019-04-01T08:54:38.486Z,1008.29
2019-04-01T08:55:38.476Z,1008.30
2019-04-01T08:56:38.489Z,1008.31
2019-04-01T08:57:38.461Z,1008.30
2019-04-01T08:58:38.449Z,1008.30
2019-04-01T08:59:38.440Z,1008.27
2019-04-01T09:00:38.432Z,1008.26
2019-04-01T09:01:38.422Z,1008.27
2019-04-01T09:02:38.427Z,1008.30
2019-04-01T09:03:38.406Z,1008.30
2019-04-01T09:04:38.418Z,1008.33
2019-04-01T09:05:38.405Z,1008.24
2019-04-01T09:06:38.398Z,1008.29
2019-04-01T09:07:38.373Z,1008.27
2019-04-01T09:08:38.365Z,1008.28
2019-04-01T09:09:38.354Z,1008.30
2019-04-01T09:10:38.346Z,1008.34
2019-04-01T09:11:38.809Z,1008.30
2019-04-01T09:12:38.329Z,1008.31
2019-04-01T09:13:38.316Z,1008.29
2019-04-01T09:14:38.311Z,1008.34
2019-04-01T09:15:38.302Z,1008.34
2019-04-01T09:16:38.294Z,1008.27
2019-04-01T09:17:40.320Z,1008.31
2019-04-01T09:18:38.276Z,1008.29
2019-04-01T09:19:38.276Z,1008.34
2019-04-01T09:20:38.266Z,1008.34
2019-04-01T09:21:38.252Z,1008.30
2019-04-01T09:22:38.248Z,1008.28
2019-04-01T09:23:38.242Z,1008.37
2019-04-01T09:24:38.229Z,1008.35
2019-04-01T09:25:38.226Z,1008.29
2019-04-01T09:26:38.213Z,1008.24
2019-04-01T09:27:38.202Z,1008.22
2019-04-01T09:28:38.197Z,1008.29
2019-04-01T09:29:38.187Z,1008.22
2019-04-01T09:30:38.180Z,1008.22
2019-04-01T09:31:38.174Z,1008.19
2019-04-01T09:32:38.163Z,1008.23
2019-04-01T09:33:38.154Z,1008.17
2019-04-01T09:34:38.143Z,1008.11
2019-04-01T09:35:40.912Z,1008.12
2019-04-01T09:36:38.132Z,1008.18
2019-04-01T09:37:38.133Z,1008.14
2019-04-01T09:38:38.173Z,1008.14
2019-04-01T09:39:38.124Z,1008.18
2019-04-01T09:40:38.100Z,1008.19
2019-04-01T09:41:38.090Z,1008.16
2019-04-01T09:42:38.083Z,1008.07
2019-04-01T09:43:38.083Z,1008.15
2019-04-01T09:44:38.072Z,1008.10
2019-04-01T09:45:38.056Z,1008.11
2019-04-01T09:46:38.077Z,1008.04
2019-04-01T09:47:38.044Z,1008.04
2019-04-01T09:48:38.055Z,1008.03
2019-04-01T09:49:38.027Z,1007.99
2019-04-01T09:50:38.019Z,1007.99
2019-04-01T09:51:48.549Z,1007.99
2019-04-01T09:52:38.004Z,1008.05
2019-04-01T09:53:37.996Z,1008.11
2019-04-01T09:54:37.989Z,1007.99
2019-04-01T09:55:37.978Z,1007.99
2019-04-01T09:56:37.973Z,1007.94
2019-04-01T09:57:38.023Z,1007.91
2019-04-01T09:58:37.957Z,1007.88
2019-04-01T09:59:37.948Z,1007.89
2019-04-01T10:00:37.939Z,1007.94
2019-04-01T10:01:37.933Z,1007.93
2019-04-01T10:02:37.926Z,1007.89
2019-04-01T10:03:37.915Z,1007.96
2019-04-01T10:04:37.909Z,1007.86
2019-04-01T10:05:37.903Z,1007.88
2019-04-01T10:06:37.891Z,1007.99
2019-04-01T10:07:37.934Z,1007.83
2019-04-01T10:08:42.442Z,1007.73
2019-04-01T10:09:37.871Z,1007.79
2019-04-01T10:10:37.864Z,1007.76
2019-04-01T10:11:37.853Z,1007.74
2019-04-01T10:12:37.849Z,1007.77
2019-04-01T10:13:37.841Z,1007.75
2019-04-01T10:14:37.830Z,1007.73
2019-04-01T10:15:37.827Z,1007.80
2019-04-01T10:16:37.817Z,1007.77
2019-04-01T10:17:37.822Z,1007.70
2019-04-01T10:18:37.803Z,1007.71
2019-04-01T10:19:37.791Z,1007.69
2019-04-01T10:20:37.786Z,1007.68
2019-04-01T10:21:37.778Z,1007.68
2019-04-01T10:22:37.769Z,1007.62
2019-04-01T10:23:37.765Z,1007.61
2019-04-01T10:24:37.757Z,1007.57
2019-04-01T10:25:37.747Z,1007.53
2019-04-01T10:26:37.741Z,1007.54
2019-04-01T10:27:37.732Z,1007.56
2019-04-01T10:28:37.734Z,1007.59
2019-04-01T10:29:37.717Z,1007.53
2019-04-01T10:30:37.708Z,1007.50
2019-04-01T10:31:37.697Z,1007.54
2019-04-01T10:32:37.812Z,1007.52
2019-04-01T10:33:37.687Z,1007.52
2019-04-01T10:34:37.680Z,1007.47
2019-04-01T10:35:37.673Z,1007.49
2019-04-01T10:36:37.667Z,1007.48
2019-04-01T10:37:37.659Z,1007.40
2019-04-01T10:38:37.660Z,1007.45
2019-04-01T10:39:37.645Z,1007.42
2019-04-01T10:40:37.634Z,1007.39
2019-04-01T10:41:37.696Z,1007.40
2019-04-01T10:42:37.621Z,1007.48
2019-04-01T10:43:37.614Z,1007.44
2019-04-01T10:44:37.608Z,1007.42
2019-04-01T10:45:37.601Z,1007.42
2019-04-01T10:46:40.557Z,1007.40
2019-04-01T10:47:37.675Z,1007.41
2019-04-01T10:48:37.622Z,1007.38
2019-04-01T10:49:37.630Z,1007.35
2019-04-01T10:50:37.652Z,1007.33
2019-04-01T10:51:37.616Z,1007.35
2019-04-01T10:52:37.650Z,1007.35
2019-04-01T10:53:37.557Z,1007.34
2019-04-01T10:54:37.549Z,1007.35
2019-04-01T10:55:37.547Z,1007.20
2019-04-01T10:56:37.526Z,1007.21
2019-04-01T10:57:37.511Z,1007.23
2019-04-01T10:58:37.539Z,1007.21
2019-04-01T10:59:37.635Z,1007.20
2019-04-01T11:00:37.617Z,1007.23
2019-04-01T11:01:37.528Z,1007.10
2019-04-01T11:02:37.487Z,1007.25
2019-04-01T11:03:37.665Z,1007.25
2019-04-01T11:04:37.508Z,1007.17
2019-04-01T11:05:37.468Z,1007.24
2019-04-01T11:06:37.542Z,1007.21
2019-04-01T11:07:37.531Z,1007.20
2019-04-01T11:08:37.537Z,1007.17
2019-04-01T11:09:38.781Z,1007.19
2019-04-01T11:10:37.417Z,1007.25
2019-04-01T11:11:37.511Z,1007.14
2019-04-01T11:12:37.485Z,1007.12
2019-04-01T11:13:37.964Z,1007.11
2019-04-01T11:14:37.394Z,1007.15
2019-04-01T11:15:37.398Z,1007.09
2019-04-01T11:16:37.384Z,1007.14
2019-04-01T11:17:37.392Z,1007.10
2019-04-01T11:18:37.373Z,1007.13
2019-04-01T11:19:37.356Z,1007.09
2019-04-01T11:20:37.593Z,1007.13
2019-04-01T11:21:37.341Z,1007.02
2019-04-01T11:22:37.339Z,1007.04
2019-04-01T11:23:37.483Z,1007.04
2019-04-01T11:24:37.333Z,1007.01
2019-04-01T11:25:37.318Z,1007.03
2019-04-01T11:26:37.318Z,1006.99
2019-04-01T11:27:37.315Z,1006.99
2019-04-01T11:28:37.299Z,1007.02
2019-04-01T11:29:37.289Z,1006.92
2019-04-01T11:30:37.545Z,1006.95
2019-04-01T11:31:37.329Z,1006.92
2019-04-01T11:32:37.325Z,1006.97
2019-04-01T11:33:37.272Z,1006.96
2019-04-01T11:34:37.266Z,1006.89
2019-04-01T11:35:37.288Z,1006.81
2019-04-01T11:36:37.311Z,1006.97
2019-04-01T11:37:37.267Z,1006.89
2019-04-01T11:38:37.253Z,1006.87
2019-04-01T11:39:37.228Z,1006.89
2019-04-01T11:40:38.927Z,1006.84
2019-04-01T11:41:37.248Z,1006.90
2019-04-01T11:42:40.497Z,1006.90
2019-04-01T11:43:37.206Z,1006.84
2019-04-01T11:44:37.218Z,1006.81
2019-04-01T11:45:37.225Z,1006.80
2019-04-01T11:46:37.193Z,1006.80
2019-04-01T11:47:37.248Z,1006.74
2019-04-01T11:48:37.300Z,1006.70
2019-04-01T11:49:37.219Z,1006.69
2019-04-01T11:50:37.215Z,1006.74
2019-04-01T11:51:40.019Z,1006.68
2019-04-01T11:52:38.022Z,1006.70
2019-04-01T11:53:37.433Z,1006.68
2019-04-01T11:54:37.124Z,1006.62
2019-04-01T11:55:37.121Z,1006.62
2019-04-01T11:56:37.115Z,1006.61
2019-04-01T11:57:37.109Z,1006.60
2019-04-01T11:58:38.442Z,1006.56
2019-04-01T11:59:37.915Z,1006.60
2019-04-01T12:00:37.088Z,1006.53
2019-04-01T12:01:37.086Z,1006.52
2019-04-01T12:02:37.073Z,1006.57
2019-04-01T12:03:37.068Z,1006.55
2019-04-01T12:04:37.066Z,1006.53
2019-04-01T12:05:37.050Z,1006.43